createdAt,value
2019-06-26T00:00:06.884Z,1003.26
2019-06-26T00:01:06.912Z,1003.24
2019-06-26T00:02:06.939Z,1003.26
2019-06-26T00:03:06.966Z,1003.25
2019-06-26T00:04:06.996Z,1003.24
2019-06-26T00:05:07.024Z,1003.26
2019-06-26T00:06:07.050Z,1003.27
2019-06-26T00:07:07.078Z,1003.24
2019-06-26T00:08:07.140Z,1003.24
2019-06-26T00:09:07.135Z,1003.27
2019-06-26T00:10:07.160Z,1003.27
2019-06-26T00:11:07.189Z,1003.29
2019-06-26T00:12:07.218Z,1003.29
2019-06-26T00:13:07.245Z,1003.3
2019-06-26T00:14:07.274Z,1003.28
2019-06-26T00:15:07.311Z,1003.28
2019-06-26T00:16:07.331Z,1003.3
2019-06-26T00:17:07.358Z,1003.31
2019-06-26T00:18:07.394Z,1003.33
2019-06-26T00:19:07.412Z,1003.37
2019-06-26T00:20:07.444Z,1003.33
2019-06-26T00:21:07.466Z,1003.29
2019-06-26T00:22:07.495Z,1003.31
2019-06-26T00:23:07.524Z,1003.34
2019-06-26T00:24:07.550Z,1003.36
2019-06-26T00:25:07.585Z,1003.39
2019-06-26T00:26:07.608Z,1003.4
2019-06-26T00:27:07.636Z,1003.41
2019-06-26T00:28:07.662Z,1003.4
2019-06-26T00:29:07.689Z,1003.42
2019-06-26T00:30:07.717Z,1003.42
2019-06-26T00:31:07.759Z,1003.43
2019-06-26T00:32:07.775Z,1003.4
2019-06-26T00:33:07.800Z,1003.45
2019-06-26T00:34:07.828Z,1003.51
2019-06-26T00:35:07.856Z,1003.51
2019-06-26T00:36:07.884Z,1003.53
2019-06-26T00:37:07.912Z,1003.5
2019-06-26T00:38:07.940Z,1003.46
2019-06-26T00:39:07.969Z,1003.47
2019-06-26T00:40:07.997Z,1003.5
2019-06-26T00:41:08.040Z,1003.51
2019-06-26T00:42:08.053Z,1003.51
2019-06-26T00:43:08.079Z,1003.49
2019-06-26T00:44:08.106Z,1003.51
2019-06-26T00:45:08.135Z,1003.5
2019-06-26T00:46:08.161Z,1003.53
2019-06-26T00:47:08.191Z,1003.53
2019-06-26T00:48:08.218Z,1003.5
2019-06-26T00:49:08.247Z,1003.5
2019-06-26T00:50:08.273Z,1003.56
2019-06-26T00:51:08.307Z,1003.56
2019-06-26T00:52:08.330Z,1003.56
2019-06-26T00:53:08.357Z,1003.57
2019-06-26T00:54:08.430Z,1003.56
2019-06-26T00:55:08.412Z,1003.59
2019-06-26T00:56:08.442Z,1003.53
2019-06-26T00:57:08.468Z,1003.61
2019-06-26T00:58:08.501Z,1003.63
2019-06-26T00:59:08.525Z,1003.63
2019-06-26T01:00:08.551Z,1003.65
2019-06-26T01:01:08.577Z,1003.66
2019-06-26T01:02:08.610Z,1003.66
2019-06-26T01:03:08.634Z,1003.68
2019-06-26T01:04:08.666Z,1003.68
2019-06-26T01:05:08.689Z,1003.68
2019-06-26T01:06:08.726Z,1003.69
2019-06-26T01:07:08.745Z,1003.68
2019-06-26T01:08:08.771Z,1003.71
2019-06-26T01:09:08.806Z,1003.71
2019-06-26T01:10:08.827Z,1003.69
2019-06-26T01:11:08.871Z,1003.77
2019-06-26T01:12:09.136Z,1003.76
2019-06-26T01:13:08.910Z,1003.76
2019-06-26T01:14:08.940Z,1003.79
2019-06-26T01:15:08.967Z,1003.77
2019-06-26T01:16:08.995Z,1003.78
2019-06-26T01:17:09.025Z,1003.75
2019-06-26T01:18:09.050Z,1003.74
2019-06-26T01:19:09.085Z,1003.73
2019-06-26T01:20:09.106Z,1003.72
2019-06-26T01:21:09.133Z,1003.75
2019-06-26T01:22:09.161Z,1003.75
2019-06-26T01:23:09.188Z,1003.75
2019-06-26T01:24:09.215Z,1003.77
2019-06-26T01:25:09.243Z,1003.75
2019-06-26T01:26:09.271Z,1003.79
2019-06-26T01:27:09.298Z,1003.76
2019-06-26T01:28:09.328Z,1003.83
2019-06-26T01:29:09.353Z,1003.83
2019-06-26T01:30:09.381Z,1003.85
2019-06-26T01:31:09.409Z,1003.84
2019-06-26T01:32:09.439Z,1003.81
2019-06-26T01:33:09.528Z,1003.84
2019-06-26T01:34:09.493Z,1003.87
2019-06-26T01:35:09.519Z,1003.83
2019-06-26T01:36:09.547Z,1003.87
2019-06-26T01:37:09.575Z,1003.88
2019-06-26T01:38:09.602Z,1003.85
2019-06-26T01:39:09.631Z,1003.88
2019-06-26T01:40:09.674Z,1003.89
2019-06-26T01:41:09.714Z,1003.89
2019-06-26T01:42:09.713Z,1003.91
2019-06-26T01:43:09.742Z,1003.9
2019-06-26T01:44:14.572Z,1003.92
2019-06-26T01:45:09.795Z,1003.92
2019-06-26T01:46:09.823Z,1003.94
2019-06-26T01:47:09.853Z,1003.96
2019-06-26T01:48:09.880Z,1003.95
2019-06-26T01:49:09.905Z,1003.94
2019-06-26T01:50:09.934Z,1003.96
2019-06-26T01:51:09.963Z,1003.95
2019-06-26T01:52:09.992Z,1003.94
2019-06-26T01:53:10.021Z,1003.96
2019-06-26T01:54:10.048Z,1003.97
2019-06-26T01:55:10.071Z,1003.99
2019-06-26T01:56:10.100Z,1004.03
2019-06-26T01:57:10.136Z,1004.01
2019-06-26T01:58:10.154Z,1004.05
2019-06-26T01:59:10.187Z,1004.02
2019-06-26T02:00:10.209Z,1004.07
2019-06-26T02:01:10.235Z,1004.09
2019-06-26T02:02:10.265Z,1004.09
2019-06-26T02:03:10.290Z,1004.09
2019-06-26T02:04:10.319Z,1004.09
2019-06-26T02:05:10.347Z,1004.1
2019-06-26T02:06:10.374Z,1004.14
2019-06-26T02:07:10.411Z,1004.18
2019-06-26T02:08:10.439Z,1004.14
2019-06-26T02:09:10.457Z,1004.12
2019-06-26T02:10:10.487Z,1004.12
2019-06-26T02:11:10.513Z,1004.13
2019-06-26T02:12:10.538Z,1004.14
2019-06-26T02:13:10.567Z,1004.17
2019-06-26T02:14:10.594Z,1004.18
2019-06-26T02:15:10.648Z,1004.19
2019-06-26T02:16:10.648Z,1004.2
2019-06-26T02:17:10.680Z,1004.22
2019-06-26T02:18:10.708Z,1004.18
2019-06-26T02:19:10.733Z,1004.24
2019-06-26T02:20:10.759Z,1004.21
2019-06-26T02:21:10.786Z,1004.22
2019-06-26T02:22:10.814Z,1004.28
2019-06-26T02:23:10.844Z,1004.24
2019-06-26T02:24:10.869Z,1004.24
2019-06-26T02:25:10.896Z,1004.24
2019-06-26T02:26:10.926Z,1004.24
2019-06-26T02:27:10.952Z,1004.22
2019-06-26T02:28:10.979Z,1004.23
2019-06-26T02:29:11.008Z,1004.25
2019-06-26T02:30:11.038Z,1004.27
2019-06-26T02:31:11.062Z,1004.31
2019-06-26T02:32:11.090Z,1004.28
2019-06-26T02:33:11.115Z,1004.26
2019-06-26T02:34:11.144Z,1004.3
2019-06-26T02:35:11.179Z,1004.34
2019-06-26T02:36:11.198Z,1004.35
2019-06-26T02:37:11.226Z,1004.38
2019-06-26T02:38:11.255Z,1004.38
2019-06-26T02:39:11.281Z,1004.39
2019-06-26T02:40:11.489Z,1004.37
2019-06-26T02:41:11.337Z,1004.37
2019-06-26T02:42:11.367Z,1004.41
2019-06-26T02:43:11.390Z,1004.43
2019-06-26T02:44:11.418Z,1004.41
2019-06-26T02:45:11.446Z,1004.41
2019-06-26T02:46:11.472Z,1004.44
2019-06-26T02:47:19.104Z,1004.4
2019-06-26T02:48:11.527Z,1004.41
2019-06-26T02:49:11.557Z,1004.43
2019-06-26T02:50:11.586Z,1004.44
2019-06-26T02:51:11.619Z,1004.46
2019-06-26T02:52:11.640Z,1004.46
2019-06-26T02:53:11.667Z,1004.46
2019-06-26T02:54:11.694Z,1004.49
2019-06-26T02:55:11.783Z,1004.53
2019-06-26T02:56:11.747Z,1004.52
2019-06-26T02:57:11.786Z,1004.53
2019-06-26T02:58:11.802Z,1004.57
2019-06-26T02:59:11.829Z,1004.54
2019-06-26T03:00:11.858Z,1004.57
2019-06-26T03:01:11.884Z,1004.6
2019-06-26T03:02:11.916Z,1004.62
2019-06-26T03:03:11.951Z,1004.64
2019-06-26T03:04:11.969Z,1004.64
2019-06-26T03:05:11.993Z,1004.64
2019-06-26T03:06:12.020Z,1004.63
2019-06-26T03:07:12.048Z,1004.63
2019-06-26T03:08:12.076Z,1004.67
2019-06-26T03:09:12.102Z,1004.64
2019-06-26T03:10:12.131Z,1004.66
2019-06-26T03:11:12.187Z,1004.64
2019-06-26T03:12:12.184Z,1004.65
2019-06-26T03:13:12.211Z,1004.67
2019-06-26T03:14:12.241Z,1004.64
2019-06-26T03:15:12.267Z,1004.65
2019-06-26T03:16:12.295Z,1004.67
2019-06-26T03:17:12.321Z,1004.7
2019-06-26T03:18:12.349Z,1004.71
2019-06-26T03:19:12.384Z,1004.7
2019-06-26T03:20:12.408Z,1004.72
2019-06-26T03:21:12.430Z,1004.72
2019-06-26T03:22:12.463Z,1004.74
2019-06-26T03:23:12.484Z,1004.74
2019-06-26T03:24:12.514Z,1004.75
2019-06-26T03:25:12.540Z,1004.72
2019-06-26T03:26:12.570Z,1004.73
2019-06-26T03:27:12.595Z,1004.79
2019-06-26T03:28:12.622Z,1004.74
2019-06-26T03:29:12.650Z,1004.73
2019-06-26T03:30:12.708Z,1004.78
2019-06-26T03:31:12.705Z,1004.73
2019-06-26T03:32:12.732Z,1004.75
2019-06-26T03:33:12.759Z,1004.77
2019-06-26T03:34:12.785Z,1004.77
2019-06-26T03:35:12.811Z,1004.8
2019-06-26T03:36:12.840Z,1004.8
2019-06-26T03:37:12.866Z,1004.83
2019-06-26T03:38:12.895Z,1004.8
2019-06-26T03:39:12.921Z,1004.87
2019-06-26T03:40:12.955Z,1004.8
2019-06-26T03:41:12.981Z,1004.83
2019-06-26T03:42:13.003Z,1004.84
2019-06-26T03:43:13.032Z,1004.89
2019-06-26T03:44:13.059Z,1004.91
2019-06-26T03:45:24.907Z,1004.91
2019-06-26T03:46:13.113Z,1004.91
2019-06-26T03:47:13.143Z,1004.9
2019-06-26T03:48:13.168Z,1004.89
2019-06-26T03:49:13.194Z,1004.94
2019-06-26T03:50:13.220Z,1004.94
2019-06-26T03:51:14.149Z,1004.94
2019-06-26T03:52:13.277Z,1005
2019-06-26T03:53:13.303Z,1004.97
2019-06-26T03:54:13.356Z,1005
2019-06-26T03:55:13.360Z,1004.95
2019-06-26T03:56:13.384Z,1004.97
2019-06-26T03:57:13.427Z,1004.97
2019-06-26T03:58:13.439Z,1004.98
2019-06-26T03:59:13.466Z,1004.99
2019-06-26T04:00:13.494Z,1005
2019-06-26T04:01:13.524Z,1005.03
2019-06-26T04:02:13.576Z,1005.02
2019-06-26T04:03:13.574Z,1005.06
2019-06-26T04:04:13.602Z,1005.04
2019-06-26T04:05:13.628Z,1005.05
2019-06-26T04:06:13.666Z,1005.06
2019-06-26T04:07:13.682Z,1005.04
2019-06-26T04:08:13.710Z,1005.07
2019-06-26T04:09:13.736Z,1005.07
2019-06-26T04:10:13.764Z,1005.1
2019-06-26T04:11:13.790Z,1005.1
2019-06-26T04:12:13.825Z,1005.06
2019-06-26T04:13:13.845Z,1005.12
2019-06-26T04:14:13.877Z,1005.1
2019-06-26T04:15:13.902Z,1005.09
2019-06-26T04:16:13.927Z,1005.16
2019-06-26T04:17:13.955Z,1005.13
2019-06-26T04:18:13.981Z,1005.11
2019-06-26T04:19:14.008Z,1005.14
2019-06-26T04:20:14.037Z,1005.14
2019-06-26T04:21:14.063Z,1005.19
2019-06-26T04:22:14.091Z,1005.19
2019-06-26T04:23:14.117Z,1005.2
2019-06-26T04:24:14.162Z,1005.22
2019-06-26T04:25:14.175Z,1005.2
2019-06-26T04:26:14.200Z,1005.19
2019-06-26T04:27:14.226Z,1005.19
2019-06-26T04:28:14.255Z,1005.22
2019-06-26T04:29:14.281Z,1005.21
2019-06-26T04:30:14.310Z,1005.21
2019-06-26T04:31:14.339Z,1005.19
2019-06-26T04:32:14.364Z,1005.27
2019-06-26T04:33:14.390Z,1005.24
2019-06-26T04:34:14.418Z,1005.28
2019-06-26T04:35:14.446Z,1005.3
2019-06-26T04:36:14.472Z,1005.28
2019-06-26T04:37:14.500Z,1005.34
2019-06-26T04:38:14.528Z,1005.32
2019-06-26T04:39:14.555Z,1005.36
2019-06-26T04:40:14.588Z,1005.39
2019-06-26T04:41:14.610Z,1005.37
2019-06-26T04:42:14.639Z,1005.39
2019-06-26T04:43:14.665Z,1005.45
2019-06-26T04:44:14.695Z,1005.45
2019-06-26T04:45:14.718Z,1005.42
2019-06-26T04:46:14.746Z,1005.45
2019-06-26T04:47:14.773Z,1005.45
2019-06-26T04:48:14.800Z,1005.43
2019-06-26T04:49:14.828Z,1005.44
2019-06-26T04:50:14.856Z,1005.44
2019-06-26T04:51:14.896Z,1005.47
2019-06-26T04:52:14.910Z,1005.46
2019-06-26T04:53:14.950Z,1005.45
2019-06-26T04:54:14.964Z,1005.45
2019-06-26T04:55:14.991Z,1005.45
2019-06-26T04:56:15.020Z,1005.45
2019-06-26T04:57:15.046Z,1005.5
2019-06-26T04:58:15.074Z,1005.5
2019-06-26T04:59:15.101Z,1005.5
2019-06-26T05:00:15.129Z,1005.51
2019-06-26T05:01:15.157Z,1005.52
2019-06-26T05:02:15.181Z,1005.51
2019-06-26T05:03:15.211Z,1005.54
2019-06-26T05:04:15.238Z,1005.55
2019-06-26T05:05:15.266Z,1005.54
2019-06-26T05:06:15.294Z,1005.57
2019-06-26T05:07:15.319Z,1005.54
2019-06-26T05:08:15.349Z,1005.58
2019-06-26T05:09:15.379Z,1005.56
2019-06-26T05:10:15.402Z,1005.52
2019-06-26T05:11:15.430Z,1005.54
2019-06-26T05:12:15.463Z,1005.56
2019-06-26T05:13:15.483Z,1005.55
2019-06-26T05:14:15.530Z,1005.56
2019-06-26T05:15:15.539Z,1005.55
2019-06-26T05:16:19.136Z,1005.52
2019-06-26T05:17:15.598Z,1005.54
2019-06-26T05:18:15.621Z,1005.52
2019-06-26T05:19:15.648Z,1005.56
2019-06-26T05:20:15.677Z,1005.52
2019-06-26T05:21:15.702Z,1005.55
2019-06-26T05:22:15.731Z,1005.5
2019-06-26T05:23:15.757Z,1005.5
2019-06-26T05:24:15.785Z,1005.56
2019-06-26T05:25:15.811Z,1005.54
2019-06-26T05:26:15.838Z,1005.56
2019-06-26T05:27:15.868Z,1005.56
2019-06-26T05:28:15.892Z,1005.56
2019-06-26T05:29:15.921Z,1005.55
2019-06-26T05:30:15.951Z,1005.55
2019-06-26T05:31:15.976Z,1005.59
2019-06-26T05:32:16.003Z,1005.58
2019-06-26T05:33:16.030Z,1005.61
2019-06-26T05:34:16.058Z,1005.61
2019-06-26T05:35:16.083Z,1005.66
2019-06-26T05:36:16.111Z,1005.65
2019-06-26T05:37:16.139Z,1005.64
2019-06-26T05:38:16.168Z,1005.68
2019-06-26T05:39:16.197Z,1005.69
2019-06-26T05:40:16.222Z,1005.68
2019-06-26T05:41:16.250Z,1005.71
2019-06-26T05:42:16.275Z,1005.72
2019-06-26T05:43:16.303Z,1005.75
2019-06-26T05:44:16.331Z,1005.72
2019-06-26T05:45:16.360Z,1005.72
2019-06-26T05:46:29.918Z,1005.72
2019-06-26T05:47:16.412Z,1005.74
2019-06-26T05:48:16.440Z,1005.77
2019-06-26T05:49:16.467Z,1005.78
2019-06-26T05:50:16.495Z,1005.79
2019-06-26T05:51:16.523Z,1005.79
2019-06-26T05:52:16.827Z,1005.81
2019-06-26T05:53:16.577Z,1005.87
2019-06-26T05:54:16.604Z,1005.83
2019-06-26T05:55:16.631Z,1005.87
2019-06-26T05:56:16.659Z,1005.88
2019-06-26T05:57:16.686Z,1005.89
2019-06-26T05:58:16.714Z,1005.91
2019-06-26T05:59:16.742Z,1005.93
2019-06-26T06:00:16.923Z,1005.9
2019-06-26T06:01:16.798Z,1005.88
2019-06-26T06:02:16.826Z,1005.9
2019-06-26T06:03:16.853Z,1005.94
2019-06-26T06:04:16.879Z,1005.94
2019-06-26T06:05:16.908Z,1005.92
2019-06-26T06:06:16.935Z,1005.92
2019-06-26T06:07:16.965Z,1005.91
2019-06-26T06:08:16.991Z,1005.97
2019-06-26T06:09:17.020Z,1005.95
2019-06-26T06:10:17.081Z,1005.98
2019-06-26T06:11:17.074Z,1006.03
2019-06-26T06:12:17.101Z,1006.01
2019-06-26T06:13:17.130Z,1005.99
2019-06-26T06:14:17.161Z,1005.99
2019-06-26T06:15:17.186Z,1005.99
2019-06-26T06:16:17.219Z,1005.99
2019-06-26T06:17:17.239Z,1005.99
2019-06-26T06:18:17.265Z,1006
2019-06-26T06:19:17.293Z,1006.01
2019-06-26T06:20:17.321Z,1006.05
2019-06-26T06:21:17.350Z,1006.05
2019-06-26T06:22:17.379Z,1006.06
2019-06-26T06:23:17.404Z,1006.05
2019-06-26T06:24:17.446Z,1006.1
2019-06-26T06:25:17.462Z,1006.09
2019-06-26T06:26:17.486Z,1006.12
2019-06-26T06:27:17.514Z,1006.08
2019-06-26T06:28:17.543Z,1006.09
2019-06-26T06:29:17.569Z,1006.09
2019-06-26T06:30:17.616Z,1006.13
2019-06-26T06:31:17.625Z,1006.16
2019-06-26T06:32:17.652Z,1006.14
2019-06-26T06:33:17.679Z,1006.14
2019-06-26T06:34:17.707Z,1006.17
2019-06-26T06:35:17.739Z,1006.16
2019-06-26T06:36:17.766Z,1006.13
2019-06-26T06:37:17.790Z,1006.16
2019-06-26T06:38:17.821Z,1006.2
2019-06-26T06:39:17.845Z,1006.2
2019-06-26T06:40:17.873Z,1006.26
2019-06-26T06:41:17.902Z,1006.26
2019-06-26T06:42:17.927Z,1006.26
2019-06-26T06:43:17.955Z,1006.29
2019-06-26T06:44:17.982Z,1006.29
2019-06-26T06:45:18.049Z,1006.31
2019-06-26T06:46:18.037Z,1006.28
2019-06-26T06:47:18.065Z,1006.3
2019-06-26T06:48:18.094Z,1006.32
2019-06-26T06:49:18.125Z,1006.35
2019-06-26T06:50:18.148Z,1006.29
2019-06-26T06:51:18.176Z,1006.33
2019-06-26T06:52:18.203Z,1006.35
2019-06-26T06:53:18.230Z,1006.33
2019-06-26T06:54:18.280Z,1006.33
2019-06-26T06:55:18.284Z,1006.36
2019-06-26T06:56:18.312Z,1006.38
2019-06-26T06:57:18.340Z,1006.36
2019-06-26T06:58:18.368Z,1006.36
2019-06-26T06:59:18.394Z,1006.42
2019-06-26T07:00:18.434Z,1006.39
2019-06-26T07:01:18.450Z,1006.41
2019-06-26T07:02:18.478Z,1006.39
2019-06-26T07:03:18.505Z,1006.42
2019-06-26T07:04:18.532Z,1006.43
2019-06-26T07:05:18.560Z,1006.43
2019-06-26T07:06:18.587Z,1006.44
2019-06-26T07:07:18.615Z,1006.43
2019-06-26T07:08:18.645Z,1006.41
2019-06-26T07:09:18.671Z,1006.4
2019-06-26T07:10:18.697Z,1006.46
2019-06-26T07:11:18.726Z,1006.44
2019-06-26T07:12:20.843Z,1006.44
2019-06-26T07:13:18.781Z,1006.41
2019-06-26T07:14:18.808Z,1006.46
2019-06-26T07:15:18.836Z,1006.45
2019-06-26T07:16:18.863Z,1006.5
2019-06-26T07:17:20.852Z,1006.46
2019-06-26T07:18:18.919Z,1006.46
2019-06-26T07:19:18.947Z,1006.44
2019-06-26T07:20:18.976Z,1006.44
2019-06-26T07:21:19.006Z,1006.42
2019-06-26T07:22:19.043Z,1006.41
2019-06-26T07:23:19.061Z,1006.38
2019-06-26T07:24:19.089Z,1006.43
2019-06-26T07:25:19.111Z,1006.4
2019-06-26T07:26:19.139Z,1006.42
2019-06-26T07:27:19.170Z,1006.41
2019-06-26T07:28:19.226Z,1006.46
2019-06-26T07:29:19.222Z,1006.42
2019-06-26T07:30:19.267Z,1006.41
2019-06-26T07:31:19.305Z,1006.41
2019-06-26T07:32:19.315Z,1006.44
2019-06-26T07:33:19.332Z,1006.44
2019-06-26T07:34:19.360Z,1006.45
2019-06-26T07:35:19.388Z,1006.47
2019-06-26T07:36:19.427Z,1006.47
2019-06-26T07:37:19.444Z,1006.47
2019-06-26T07:38:19.490Z,1006.48
2019-06-26T07:39:19.499Z,1006.47
2019-06-26T07:40:19.574Z,1006.51
2019-06-26T07:41:19.555Z,1006.52
2019-06-26T07:42:19.582Z,1006.52
2019-06-26T07:43:19.609Z,1006.57
2019-06-26T07:44:19.641Z,1006.56
2019-06-26T07:45:23.033Z,1006.53
2019-06-26T07:46:19.692Z,1006.56
2019-06-26T07:47:23.283Z,1006.57
2019-06-26T07:48:19.748Z,1006.55
2019-06-26T07:49:19.777Z,1006.55
2019-06-26T07:50:19.802Z,1006.58
2019-06-26T07:51:19.831Z,1006.57
2019-06-26T07:52:19.858Z,1006.6
2019-06-26T07:53:19.886Z,1006.6
2019-06-26T07:54:19.915Z,1006.6
2019-06-26T07:55:19.940Z,1006.63
2019-06-26T07:56:19.970Z,1006.6
2019-06-26T07:57:19.995Z,1006.62
2019-06-26T07:58:20.023Z,1006.66
2019-06-26T07:59:20.051Z,1006.63
2019-06-26T08:00:20.080Z,1006.64
2019-06-26T08:01:20.107Z,1006.62
2019-06-26T08:02:20.140Z,1006.64
2019-06-26T08:03:20.165Z,1006.64
2019-06-26T08:04:20.193Z,1006.63
2019-06-26T08:05:20.217Z,1006.65
2019-06-26T08:06:20.246Z,1006.64
2019-06-26T08:07:20.272Z,1006.7
2019-06-26T08:08:20.299Z,1006.71
2019-06-26T08:09:20.327Z,1006.69
2019-06-26T08:10:20.362Z,1006.68
2019-06-26T08:11:20.386Z,1006.74
2019-06-26T08:12:20.446Z,1006.7
2019-06-26T08:13:20.437Z,1006.76
2019-06-26T08:14:20.467Z,1006.73
2019-06-26T08:15:20.498Z,1006.73
2019-06-26T08:16:20.527Z,1006.78
2019-06-26T08:17:20.552Z,1006.77
2019-06-26T08:18:20.576Z,1006.77
2019-06-26T08:19:20.635Z,1006.78
2019-06-26T08:20:20.642Z,1006.81
2019-06-26T08:21:20.659Z,1006.83
2019-06-26T08:22:20.695Z,1006.8
2019-06-26T08:23:20.715Z,1006.83
2019-06-26T08:24:20.742Z,1006.81
2019-06-26T08:25:20.770Z,1006.85
2019-06-26T08:26:20.798Z,1006.82
2019-06-26T08:27:20.824Z,1006.83
2019-06-26T08:28:20.868Z,1006.83
2019-06-26T08:29:20.879Z,1006.84
2019-06-26T08:30:20.907Z,1006.84
2019-06-26T08:31:21.025Z,1006.85
2019-06-26T08:32:21.129Z,1006.81
2019-06-26T08:33:20.991Z,1006.84
2019-06-26T08:34:21.058Z,1006.83
2019-06-26T08:35:21.143Z,1006.88
2019-06-26T08:36:21.072Z,1006.87
2019-06-26T08:37:21.104Z,1006.85
2019-06-26T08:38:21.128Z,1006.87
2019-06-26T08:39:21.156Z,1006.86
2019-06-26T08:40:21.217Z,1006.9
2019-06-26T08:41:21.212Z,1006.83
2019-06-26T08:42:21.240Z,1006.87
2019-06-26T08:43:21.284Z,1006.88
2019-06-26T08:44:21.296Z,1006.86
2019-06-26T08:45:21.345Z,1006.89
2019-06-26T08:46:21.351Z,1006.88
2019-06-26T08:47:21.378Z,1006.89
2019-06-26T08:48:38.247Z,1006.88
2019-06-26T08:49:25.847Z,1006.87
2019-06-26T08:50:21.462Z,1006.89
2019-06-26T08:51:21.490Z,1006.86
2019-06-26T08:52:21.539Z,1006.87
2019-06-26T08:53:21.548Z,1006.87
2019-06-26T08:54:21.574Z,1006.92
2019-06-26T08:55:21.602Z,1006.94
2019-06-26T08:56:21.629Z,1006.96
2019-06-26T08:57:21.657Z,1006.99
2019-06-26T08:58:21.687Z,1006.96
2019-06-26T08:59:21.712Z,1006.96
2019-06-26T09:00:21.741Z,1006.92
2019-06-26T09:01:21.767Z,1006.88
2019-06-26T09:02:21.800Z,1006.93
2019-06-26T09:03:21.822Z,1006.9
2019-06-26T09:04:21.851Z,1006.89
2019-06-26T09:05:21.878Z,1006.93
2019-06-26T09:06:21.907Z,1006.93
2019-06-26T09:07:21.935Z,1006.94
2019-06-26T09:08:22.011Z,1006.92
2019-06-26T09:09:21.992Z,1006.91
2019-06-26T09:10:22.019Z,1006.94
2019-06-26T09:11:22.046Z,1006.95
2019-06-26T09:12:22.075Z,1006.96
2019-06-26T09:13:22.110Z,1006.95
2019-06-26T09:14:22.141Z,1006.97
2019-06-26T09:15:22.158Z,1006.97
2019-06-26T09:16:22.186Z,1006.98
2019-06-26T09:17:22.216Z,1006.98
2019-06-26T09:18:34.666Z,1007
2019-06-26T09:19:22.268Z,1006.99
2019-06-26T09:20:22.298Z,1007.01
2019-06-26T09:21:22.324Z,1007.03
2019-06-26T09:22:22.353Z,1007.04
2019-06-26T09:23:22.381Z,1007.03
2019-06-26T09:24:22.410Z,1007.06
2019-06-26T09:25:22.740Z,1007.07
2019-06-26T09:26:22.467Z,1007.05
2019-06-26T09:27:22.493Z,1007.08
2019-06-26T09:28:22.522Z,1007.09
2019-06-26T09:29:23.878Z,1007.07
2019-06-26T09:30:22.577Z,1007.06
2019-06-26T09:31:22.606Z,1007.1
2019-06-26T09:32:22.647Z,1007.15
2019-06-26T09:33:22.783Z,1007.15
2019-06-26T09:34:22.692Z,1007.14
2019-06-26T09:35:22.716Z,1007.19
2019-06-26T09:36:22.747Z,1007.21
2019-06-26T09:37:22.773Z,1007.18
2019-06-26T09:38:22.803Z,1007.15
2019-06-26T09:39:22.830Z,1007.19
2019-06-26T09:40:22.861Z,1007.13
2019-06-26T09:41:22.886Z,1007.16
2019-06-26T09:42:22.914Z,1007.15
2019-06-26T09:43:22.940Z,1007.13
2019-06-26T09:44:22.968Z,1007.17
2019-06-26T09:45:22.997Z,1007.16
2019-06-26T09:46:23.041Z,1007.23
2019-06-26T09:47:23.052Z,1007.22
2019-06-26T09:48:23.081Z,1007.2
2019-06-26T09:49:23.108Z,1007.17
2019-06-26T09:50:23.137Z,1007.17
2019-06-26T09:51:23.163Z,1007.19
2019-06-26T09:52:23.212Z,1007.21
2019-06-26T09:53:23.221Z,1007.18
2019-06-26T09:54:23.249Z,1007.17
2019-06-26T09:55:23.279Z,1007.21
2019-06-26T09:56:23.314Z,1007.19
2019-06-26T09:57:23.333Z,1007.14
2019-06-26T09:58:23.364Z,1007.18
2019-06-26T09:59:23.391Z,1007.19
2019-06-26T10:00:23.421Z,1007.16
2019-06-26T10:01:23.474Z,1007.17
2019-06-26T10:02:23.474Z,1007.17
2019-06-26T10:03:23.502Z,1007.21
2019-06-26T10:04:23.538Z,1007.22
2019-06-26T10:05:23.558Z,1007.21
2019-06-26T10:06:23.586Z,1007.21
2019-06-26T10:07:23.614Z,1007.25
2019-06-26T10:08:23.643Z,1007.22
2019-06-26T10:09:23.670Z,1007.21
2019-06-26T10:10:23.697Z,1007.17
2019-06-26T10:11:23.727Z,1007.22
2019-06-26T10:12:23.756Z,1007.19
2019-06-26T10:13:23.785Z,1007.16
2019-06-26T10:14:23.813Z,1007.2
2019-06-26T10:15:23.842Z,1007.2
2019-06-26T10:16:23.868Z,1007.22
2019-06-26T10:17:23.925Z,1007.18
2019-06-26T10:18:23.926Z,1007.15
2019-06-26T10:19:23.962Z,1007.18
2019-06-26T10:20:23.993Z,1007.2
2019-06-26T10:21:24.009Z,1007.19
2019-06-26T10:22:24.038Z,1007.1
2019-06-26T10:23:24.066Z,1007.1
2019-06-26T10:24:24.095Z,1007.12
2019-06-26T10:25:24.125Z,1007.11
2019-06-26T10:26:24.152Z,1007.14
2019-06-26T10:27:24.179Z,1007.18
2019-06-26T10:28:24.207Z,1007.21
2019-06-26T10:29:24.243Z,1007.18
2019-06-26T10:30:24.265Z,1007.18
2019-06-26T10:31:24.292Z,1007.18
2019-06-26T10:32:24.324Z,1007.15
2019-06-26T10:33:24.619Z,1007.1
2019-06-26T10:34:24.377Z,1007.12
2019-06-26T10:35:24.405Z,1007.15
2019-06-26T10:36:24.894Z,1007.16
2019-06-26T10:37:24.507Z,1007.18
2019-06-26T10:38:24.489Z,1007.18
2019-06-26T10:39:24.523Z,1007.15
2019-06-26T10:40:24.552Z,1007.17
2019-06-26T10:41:24.574Z,1007.17
2019-06-26T10:42:24.603Z,1007.1
2019-06-26T10:43:24.644Z,1007.08
2019-06-26T10:44:24.659Z,1007.08
2019-06-26T10:45:24.688Z,1007.08
2019-06-26T10:46:24.716Z,1007.06
2019-06-26T10:47:24.745Z,1007.09
2019-06-26T10:48:24.773Z,1007.1
2019-06-26T10:49:27.232Z,1007.1
2019-06-26T10:50:24.830Z,1007.14
2019-06-26T10:51:24.858Z,1007.07
2019-06-26T10:52:24.887Z,1007.08
2019-06-26T10:53:24.915Z,1007.07
2019-06-26T10:54:24.943Z,1007.09
2019-06-26T10:55:24.977Z,1007.07
2019-06-26T10:56:28.345Z,1007.06
2019-06-26T10:57:25.030Z,1007.04
2019-06-26T10:58:25.057Z,1007.05
2019-06-26T10:59:25.087Z,1007.04
2019-06-26T11:00:25.113Z,1007.01
2019-06-26T11:01:25.145Z,1006.99
2019-06-26T11:02:25.172Z,1007.01
2019-06-26T11:03:25.198Z,1007.01
2019-06-26T11:04:25.257Z,1007
2019-06-26T11:05:25.255Z,1007.02
2019-06-26T11:06:25.282Z,1007.02
2019-06-26T11:07:25.311Z,1006.94
2019-06-26T11:08:25.340Z,1006.95
2019-06-26T11:09:25.369Z,1006.93
2019-06-26T11:10:25.430Z,1006.91
2019-06-26T11:11:25.427Z,1006.87
2019-06-26T11:12:25.480Z,1006.92
2019-06-26T11:13:25.482Z,1006.94
2019-06-26T11:14:25.511Z,1006.88
2019-06-26T11:15:25.539Z,1006.87
2019-06-26T11:16:25.570Z,1006.9
2019-06-26T11:17:25.596Z,1006.85
2019-06-26T11:18:25.798Z,1006.82
2019-06-26T11:19:39.437Z,1006.8
2019-06-26T11:20:25.682Z,1006.91
2019-06-26T11:21:25.711Z,1006.87
2019-06-26T11:22:25.737Z,1006.87
2019-06-26T11:23:25.768Z,1006.86
2019-06-26T11:24:25.794Z,1006.86
2019-06-26T11:25:25.825Z,1006.88
2019-06-26T11:26:25.853Z,1006.86
2019-06-26T11:27:25.879Z,1006.83
2019-06-26T11:28:25.909Z,1006.85
2019-06-26T11:29:25.935Z,1006.84
2019-06-26T11:30:25.969Z,1006.92
2019-06-26T11:31:25.995Z,1006.95
2019-06-26T11:32:26.021Z,1006.95
2019-06-26T11:33:26.050Z,1006.91
2019-06-26T11:34:26.078Z,1006.97
2019-06-26T11:35:26.112Z,1006.88
2019-06-26T11:36:26.138Z,1006.88
2019-06-26T11:37:26.163Z,1006.88
2019-06-26T11:38:26.193Z,1006.89
2019-06-26T11:39:26.221Z,1006.92
2019-06-26T11:40:26.254Z,1006.9
2019-06-26T11:41:26.277Z,1006.87
2019-06-26T11:42:26.306Z,1006.92
2019-06-26T11:43:26.358Z,1006.98
2019-06-26T11:44:26.362Z,1006.97
2019-06-26T11:45:26.393Z,1006.9
2019-06-26T11:46:26.429Z,1006.9
2019-06-26T11:47:26.454Z,1006.94
2019-06-26T11:48:26.503Z,1006.91
2019-06-26T11:49:26.505Z,1006.89
2019-06-26T11:50:26.535Z,1006.88
2019-06-26T11:51:26.563Z,1006.88
2019-06-26T11:52:26.593Z,1006.9
2019-06-26T11:53:26.698Z,1006.94
2019-06-26T11:54:26.648Z,1006.93
2019-06-26T11:55:26.694Z,1006.89
2019-06-26T11:56:26.713Z,1006.85
2019-06-26T11:57:26.734Z,1006.89
2019-06-26T11:58:26.763Z,1006.86
2019-06-26T11:59:26.809Z,1006.87
2019-06-26T12:00:26.818Z,1006.9
2019-06-26T12:01:26.851Z,1006.89
2019-06-26T12:02:26.876Z,1006.9
2019-06-26T12:03:26.905Z,1006.84
2019-06-26T12:04:26.938Z,1006.93
2019-06-26T12:05:26.963Z,1006.9
2019-06-26T12:06:26.998Z,1006.91
2019-06-26T12:07:27.020Z,1006.86
2019-06-26T12:08:27.050Z,1006.86